aviador You're here:

KMHL Decoded Metar

in
Report Time2018-01-19 16:55:00
UTC Time2018-01-19 17:12:42
Flight Rules vfr VFR
Wind200° at 15 Gusting to 22 kt
W.Decomp.*RWY 18: 14.1 kt HW 5.1 kt RCW
RWY 27: 5.1 kt HW 14.1 kt LCW
W.Rank200° ranks 1
Current wind is above 200° avg. (8.0)
Visibility9999 m
Phenomena:N/A
Clouds:N/A
Expected CloudBase > 3,600 ft AGL from Temp-Dew spread
CeilingNone
Temp06°C
Dew Point-3°C (53% RH)
AAT-1.8°C
QNH1015 hPa
Raw Report
KMHL 191655Z AUTO 20015G22KT 10SM CLR 06/M03 A2998 RMK AO2=

Extra information for KMHL:More info

Social comments